createdAt,value
2022-12-15T00:01:43.066Z,58.72
2022-12-15T00:04:27.754Z,55.22
2022-12-15T00:07:12.662Z,55.35
2022-12-15T00:09:57.448Z,53.90
2022-12-15T00:12:42.256Z,52.40
2022-12-15T00:15:27.616Z,57.25
2022-12-15T00:18:12.571Z,52.03
2022-12-15T00:20:57.426Z,56.10
2022-12-15T00:23:42.110Z,58.45
2022-12-15T00:26:27.044Z,56.75
2022-12-15T00:29:12.716Z,54.70
2022-12-15T00:31:57.562Z,56.38
2022-12-15T00:34:42.816Z,55.38
2022-12-15T00:37:27.843Z,55.20
2022-12-15T00:39:58.745Z,57.58
2022-12-15T00:42:28.811Z,54.67
2022-12-15T00:44:56.247Z,60.47
2022-12-15T00:47:23.069Z,59.08
2022-12-15T00:50:18.826Z,58.28
2022-12-15T00:53:03.704Z,60.28
2022-12-15T00:55:48.695Z,60.17
2022-12-15T00:58:33.579Z,58.55
2022-12-15T01:01:25.200Z,59.38
2022-12-15T01:04:10.536Z,54.25
2022-12-15T01:06:55.266Z,60.08
2022-12-15T01:09:40.473Z,58.28
2022-12-15T01:12:25.240Z,56.53
2022-12-15T01:15:10.588Z,51.35
2022-12-15T01:17:55.445Z,56.65
2022-12-15T01:20:21.839Z,50.47
2022-12-15T01:22:52.900Z,53.67
2022-12-15T01:25:21.376Z,53.92
2022-12-15T01:27:48.215Z,55.22
2022-12-15T01:30:17.485Z,58.67
2022-12-15T01:32:46.227Z,53.53
2022-12-15T01:35:13.445Z,44.30
2022-12-15T01:37:40.039Z,49.22
2022-12-15T01:40:26.699Z,46.87
2022-12-15T01:42:53.434Z,50.83
2022-12-15T01:45:28.791Z,50.33
2022-12-15T01:47:59.417Z,54.58
2022-12-15T01:50:26.784Z,54.50
2022-12-15T01:52:54.140Z,50.40
2022-12-15T01:55:24.283Z,48.22
2022-12-15T01:57:53.532Z,49.67
2022-12-15T02:00:20.225Z,50.38
2022-12-15T02:02:47.323Z,54.33
2022-12-15T02:05:14.017Z,56.35
2022-12-15T02:07:40.467Z,49.67
2022-12-15T02:10:10.186Z,51.47
2022-12-15T02:12:44.548Z,48.95
2022-12-15T02:15:20.469Z,55.55
2022-12-15T02:18:14.977Z,54.22
2022-12-15T02:20:41.882Z,53.67
2022-12-15T02:23:35.185Z,52.33
2022-12-15T02:26:39.403Z,55.42
2022-12-15T02:29:51.888Z,50.70
2022-12-15T02:32:26.347Z,47.03
2022-12-15T02:35:01.350Z,53.80
2022-12-15T02:37:36.779Z,53.67
2022-12-15T02:40:06.508Z,52.20
2022-12-15T02:42:34.762Z,51.05
2022-12-15T02:45:06.585Z,48.40
2022-12-15T02:48:00.481Z,46.88
2022-12-15T02:50:52.015Z,51.00
2022-12-15T02:53:21.218Z,50.53
2022-12-15T02:56:14.250Z,49.63
2022-12-15T02:58:51.001Z,53.25
2022-12-15T03:01:29.643Z,50.58
2022-12-15T03:03:58.153Z,51.38
2022-12-15T03:06:25.418Z,53.75
2022-12-15T03:08:51.836Z,56.65
2022-12-15T03:11:18.381Z,54.20
2022-12-15T03:13:44.919Z,54.15
2022-12-15T03:16:11.437Z,50.47
2022-12-15T03:18:37.944Z,50.58
2022-12-15T03:21:04.705Z,55.47
2022-12-15T03:23:31.360Z,50.88
2022-12-15T03:25:57.964Z,58.97
2022-12-15T03:28:24.459Z,58.40
2022-12-15T03:30:50.956Z,50.53
2022-12-15T03:33:18.031Z,50.25
2022-12-15T03:35:44.450Z,46.17
2022-12-15T03:38:10.872Z,50.33
2022-12-15T03:40:37.240Z,55.05
2022-12-15T03:43:03.641Z,56.40
2022-12-15T03:45:30.053Z,57.30
2022-12-15T03:47:58.107Z,50.50
2022-12-15T03:50:27.311Z,50.38
2022-12-15T03:53:00.416Z,51.33
2022-12-15T03:55:28.829Z,48.22
2022-12-15T03:57:55.530Z,50.13
2022-12-15T04:00:23.044Z,52.83
2022-12-15T04:02:50.384Z,52.92
2022-12-15T04:05:30.810Z,49.30
2022-12-15T04:07:59.099Z,47.30
2022-12-15T04:10:33.665Z,48.00
2022-12-15T04:13:06.005Z,48.03
2022-12-15T04:15:33.886Z,51.35
2022-12-15T04:18:05.660Z,58.55
2022-12-15T04:20:33.053Z,53.30
2022-12-15T04:23:00.408Z,59.38
2022-12-15T04:25:45.837Z,55.17
2022-12-15T04:28:31.604Z,54.05
2022-12-15T04:31:27.757Z,54.78
2022-12-15T04:34:16.501Z,51.40
2022-12-15T04:37:04.413Z,52.60
2022-12-15T04:39:49.920Z,46.38
2022-12-15T04:42:35.155Z,52.50
2022-12-15T04:45:22.627Z,46.03
2022-12-15T04:48:07.548Z,44.30
2022-12-15T04:50:52.735Z,50.35
2022-12-15T04:53:39.095Z,46.55
2022-12-15T04:56:31.692Z,44.03
2022-12-15T04:59:16.912Z,48.30
2022-12-15T05:02:01.922Z,51.75
2022-12-15T05:04:47.138Z,50.92
2022-12-15T05:07:32.204Z,47.25
2022-12-15T05:10:17.080Z,47.38
2022-12-15T05:13:02.903Z,46.78
2022-12-15T05:15:48.754Z,44.80
2022-12-15T05:18:33.963Z,44.53
2022-12-15T05:21:18.798Z,45.92
2022-12-15T05:24:03.715Z,45.30
2022-12-15T05:26:52.606Z,52.80
2022-12-15T05:29:38.917Z,48.10
2022-12-15T05:32:05.458Z,50.17
2022-12-15T05:34:34.078Z,49.78
2022-12-15T05:37:02.460Z,49.13
2022-12-15T05:39:29.634Z,46.22
2022-12-15T05:41:56.940Z,49.60
2022-12-15T05:44:25.267Z,43.45
2022-12-15T05:46:51.888Z,43.30
2022-12-15T05:49:19.279Z,45.05
2022-12-15T05:51:47.779Z,47.72
2022-12-15T05:54:17.288Z,44.13
2022-12-15T05:56:44.947Z,45.50
2022-12-15T05:59:11.654Z,45.45
2022-12-15T06:01:38.349Z,46.60
2022-12-15T06:04:05.188Z,44.63
2022-12-15T06:06:31.608Z,49.85
2022-12-15T06:08:58.184Z,49.13
2022-12-15T06:11:24.558Z,49.00
2022-12-15T06:13:50.936Z,53.47
2022-12-15T06:16:20.043Z,50.65
2022-12-15T06:18:50.791Z,50.90
2022-12-15T06:21:23.978Z,54.17
2022-12-15T06:23:50.969Z,48.70
2022-12-15T06:26:21.907Z,47.38
2022-12-15T06:28:49.494Z,50.00
2022-12-15T06:33:44.473Z,48.22
2022-12-15T06:36:15.092Z,50.08
2022-12-15T06:38:43.606Z,46.15
2022-12-15T06:41:14.897Z,46.63
2022-12-15T06:43:41.947Z,51.08
2022-12-15T06:46:09.153Z,53.83
2022-12-15T06:48:36.068Z,54.30
2022-12-15T06:51:05.038Z,62.05
2022-12-15T06:53:32.572Z,47.55
2022-12-15T06:56:01.909Z,47.60
2022-12-15T06:58:28.989Z,49.30
2022-12-15T07:00:55.916Z,53.95
2022-12-15T07:03:22.659Z,50.08
2022-12-15T07:05:49.142Z,52.40
2022-12-15T07:08:16.385Z,51.53
2022-12-15T07:10:44.642Z,49.60
2022-12-15T07:13:12.437Z,51.67
2022-12-15T07:15:40.213Z,59.85
2022-12-15T07:18:07.581Z,54.50
2022-12-15T07:20:34.087Z,54.90
2022-12-15T07:23:00.684Z,50.97
2022-12-15T07:25:27.057Z,50.95
2022-12-15T07:27:53.594Z,51.85
2022-12-15T07:30:20.239Z,52.37
2022-12-15T07:32:50.320Z,49.80
2022-12-15T07:35:17.014Z,45.55
2022-12-15T07:37:43.569Z,49.17
2022-12-15T07:40:10.455Z,45.50
2022-12-15T07:42:36.995Z,48.13
2022-12-15T07:45:05.213Z,50.83
2022-12-15T07:47:31.870Z,55.28
2022-12-15T07:49:58.246Z,51.72
2022-12-15T07:52:25.328Z,48.92
2022-12-15T07:54:51.812Z,53.67
2022-12-15T07:57:18.754Z,98.63
2022-12-15T07:59:45.246Z,67.68
2022-12-15T08:02:13.066Z,69.47
2022-12-15T08:04:40.466Z,57.58
2022-12-15T08:07:07.376Z,64.20
2022-12-15T08:09:33.741Z,62.17
2022-12-15T08:12:01.000Z,70.85
2022-12-15T08:14:29.176Z,70.72
2022-12-15T08:16:55.833Z,63.90
2022-12-15T08:19:22.323Z,68.90
2022-12-15T08:21:51.414Z,74.30
2022-12-15T08:24:19.556Z,73.13
2022-12-15T08:26:49.862Z,61.38
2022-12-15T08:29:49.607Z,66.78
2022-12-15T08:32:04.073Z,61.70
2022-12-15T08:34:30.533Z,60.37
2022-12-15T08:36:56.907Z,63.88
2022-12-15T08:39:23.424Z,57.55
2022-12-15T08:41:49.948Z,59.03
2022-12-15T08:44:16.971Z,54.28
2022-12-15T08:46:43.492Z,54.42
2022-12-15T08:49:10.312Z,53.20
2022-12-15T08:51:36.818Z,49.03
2022-12-15T08:54:03.436Z,47.65
2022-12-15T08:56:30.486Z,40.63
2022-12-15T08:58:59.087Z,33.03
2022-12-15T09:01:27.036Z,28.40
2022-12-15T09:03:54.965Z,29.83
2022-12-15T09:06:30.604Z,32.65
2022-12-15T09:08:59.248Z,36.80
2022-12-15T09:11:26.696Z,30.88
2022-12-15T09:13:53.132Z,31.83
2022-12-15T09:16:21.069Z,28.02
2022-12-15T09:18:49.989Z,28.30
2022-12-15T09:21:17.545Z,25.15
2022-12-15T09:26:15.287Z,27.30
2022-12-15T09:28:43.101Z,25.17
2022-12-15T09:33:38.356Z,27.67
2022-12-15T09:36:05.937Z,28.83
2022-12-15T09:41:14.915Z,24.17
2022-12-15T09:43:58.496Z,27.10
2022-12-15T09:46:35.987Z,28.90
2022-12-15T09:49:10.455Z,27.75
2022-12-15T09:51:48.580Z,27.05
2022-12-15T09:54:15.026Z,29.00
2022-12-15T09:56:53.114Z,30.13
2022-12-15T09:59:41.710Z,30.65
2022-12-15T10:02:42.587Z,34.70
2022-12-15T10:06:07.335Z,24.50
2022-12-15T10:08:30.382Z,35.55
2022-12-15T10:11:03.705Z,37.42
2022-12-15T10:14:02.451Z,30.05
2022-12-15T10:16:50.159Z,29.98
2022-12-15T10:19:24.509Z,27.80
2022-12-15T10:21:50.921Z,26.33
2022-12-15T10:24:44.479Z,29.83
2022-12-15T10:27:13.367Z,23.25
2022-12-15T10:30:02.233Z,27.98
2022-12-15T10:32:51.895Z,28.65
2022-12-15T10:35:29.351Z,28.10
2022-12-15T10:40:51.151Z,26.70
2022-12-15T10:43:25.515Z,22.90
2022-12-15T10:46:06.793Z,24.60
2022-12-15T10:48:33.261Z,23.83
2022-12-15T10:51:19.720Z,25.30
2022-12-15T10:53:52.879Z,28.50
2022-12-15T10:56:32.393Z,25.10
2022-12-15T10:59:02.781Z,25.45
2022-12-15T11:01:34.674Z,25.17
2022-12-15T11:04:01.512Z,24.70
2022-12-15T11:06:33.570Z,23.48
2022-12-15T11:09:28.170Z,24.88
2022-12-15T11:12:15.355Z,25.85
2022-12-15T11:14:47.511Z,20.95
2022-12-15T11:17:19.829Z,23.08
2022-12-15T11:22:57.288Z,22.85
2022-12-15T11:25:38.934Z,24.25
2022-12-15T11:28:15.499Z,23.00
2022-12-15T11:31:02.299Z,24.50
2022-12-15T11:33:29.088Z,20.27
2022-12-15T11:36:10.058Z,21.70
2022-12-15T11:38:52.121Z,21.17
2022-12-15T11:41:50.349Z,19.65
2022-12-15T11:45:01.407Z,21.42
2022-12-15T11:47:44.903Z,21.80
2022-12-15T11:50:32.147Z,19.48
2022-12-15T11:53:26.023Z,18.13
2022-12-15T11:56:04.670Z,21.83
2022-12-15T11:58:55.527Z,18.85
2022-12-15T12:01:52.610Z,20.58
2022-12-15T12:04:25.383Z,22.00
2022-12-15T12:07:03.515Z,24.55
2022-12-15T12:09:36.683Z,23.45
2022-12-15T12:12:12.111Z,20.55
2022-12-15T12:14:41.422Z,20.25
2022-12-15T12:17:23.084Z,23.52
2022-12-15T12:19:54.351Z,24.60
2022-12-15T12:22:32.227Z,25.58
2022-12-15T12:25:17.431Z,24.13
2022-12-15T12:27:56.853Z,20.35
2022-12-15T12:30:27.942Z,20.88
2022-12-15T12:33:33.452Z,20.83
2022-12-15T12:36:10.362Z,19.23
2022-12-15T12:38:46.469Z,18.20
2022-12-15T12:41:28.300Z,21.02
2022-12-15T12:43:58.148Z,19.33
2022-12-15T12:46:36.077Z,17.23
2022-12-15T12:49:22.876Z,18.92
2022-12-15T12:51:54.787Z,21.27
2022-12-15T12:54:36.585Z,17.45
2022-12-15T12:57:36.681Z,17.02
2022-12-15T13:00:19.469Z,20.35
2022-12-15T13:02:51.983Z,20.73
2022-12-15T13:05:23.636Z,24.08
2022-12-15T13:08:17.770Z,20.50
2022-12-15T13:10:48.111Z,21.13
2022-12-15T13:13:41.977Z,22.65
2022-12-15T13:16:20.400Z,27.60
2022-12-15T13:18:58.801Z,18.67
2022-12-15T13:21:43.777Z,19.83
2022-12-15T13:24:39.345Z,21.52
2022-12-15T13:27:12.387Z,25.23
2022-12-15T13:30:15.338Z,26.02
2022-12-15T13:32:44.429Z,22.70
2022-12-15T13:35:11.816Z,22.60
2022-12-15T13:37:52.517Z,18.08
2022-12-15T13:40:34.913Z,22.02
2022-12-15T13:43:04.091Z,20.17
2022-12-15T13:45:51.176Z,23.75
2022-12-15T13:51:00.587Z,21.85
2022-12-15T13:53:28.939Z,22.00
2022-12-15T13:56:15.607Z,21.08
2022-12-15T13:58:45.935Z,19.00
2022-12-15T14:01:26.006Z,19.45
2022-12-15T14:04:16.668Z,19.70
2022-12-15T14:06:48.037Z,16.92
2022-12-15T14:09:22.476Z,20.80
2022-12-15T14:11:54.195Z,15.73
2022-12-15T14:14:33.554Z,21.23
2022-12-15T14:17:02.603Z,19.65
2022-12-15T14:19:51.151Z,18.73
2022-12-15T14:22:29.963Z,20.10
2022-12-15T14:25:16.638Z,21.85
2022-12-15T14:27:43.018Z,25.02
2022-12-15T14:30:18.301Z,26.27
2022-12-15T14:32:48.466Z,25.52
2022-12-15T14:35:28.354Z,82.47
2022-12-15T14:37:58.190Z,68.10
2022-12-15T14:40:28.849Z,63.45
2022-12-15T14:42:55.949Z,59.40
2022-12-15T14:45:26.134Z,63.63
2022-12-15T14:48:40.638Z,63.88
2022-12-15T14:51:09.996Z,71.38
2022-12-15T14:53:39.870Z,67.28
2022-12-15T14:56:31.188Z,76.28
2022-12-15T14:59:04.488Z,54.90
2022-12-15T15:01:35.070Z,58.42
2022-12-15T15:03:06.890Z,24.63
2022-12-15T15:04:06.572Z,56.92
2022-12-15T15:06:40.658Z,68.03
2022-12-15T15:09:24.783Z,89.45
2022-12-15T15:11:55.746Z,97.28
2022-12-15T15:15:02.897Z,77.10
2022-12-15T15:17:50.912Z,73.68
2022-12-15T15:20:24.376Z,78.10
2022-12-15T15:23:17.000Z,86.95
2022-12-15T15:25:54.927Z,77.68
2022-12-15T15:28:35.594Z,89.28
2022-12-15T15:31:22.238Z,109.55
2022-12-15T15:33:48.637Z,215.15
2022-12-15T15:36:15.351Z,100.30
2022-12-15T15:38:46.659Z,84.32
2022-12-15T15:41:18.516Z,69.22
2022-12-15T15:43:45.663Z,50.00
2022-12-15T15:46:15.772Z,56.40
2022-12-15T15:48:50.255Z,39.28
2022-12-15T15:51:16.919Z,41.30
2022-12-15T15:53:43.600Z,108.37
2022-12-15T15:56:14.018Z,89.53
2022-12-15T15:58:41.025Z,91.82
2022-12-15T16:01:12.891Z,121.22
2022-12-15T16:03:40.705Z,79.65
2022-12-15T16:06:15.534Z,73.93
2022-12-15T16:08:42.066Z,68.15
2022-12-15T16:11:12.131Z,85.82
2022-12-15T16:13:39.431Z,115.45
2022-12-15T16:16:06.765Z,74.78
2022-12-15T16:18:33.694Z,74.22
2022-12-15T16:21:00.414Z,69.43
2022-12-15T16:23:29.180Z,73.97
2022-12-15T16:25:58.130Z,60.60
2022-12-15T16:28:30.834Z,83.82
2022-12-15T16:30:58.763Z,65.45
2022-12-15T16:33:25.595Z,72.10
2022-12-15T16:35:52.900Z,66.45
2022-12-15T16:38:28.045Z,61.42
2022-12-15T16:40:55.730Z,59.90
2022-12-15T16:43:26.920Z,58.08
2022-12-15T16:45:55.910Z,59.25
2022-12-15T16:48:22.809Z,68.60
2022-12-15T16:50:55.201Z,75.07
2022-12-15T16:53:27.385Z,76.65
2022-12-15T16:55:55.905Z,70.70
2022-12-15T16:58:23.375Z,69.10
2022-12-15T17:00:50.188Z,72.03
2022-12-15T17:03:18.885Z,71.72
2022-12-15T17:05:50.966Z,79.45
2022-12-15T17:08:21.330Z,80.82
2022-12-15T17:10:50.207Z,103.88
2022-12-15T17:13:36.555Z,259.90
2022-12-15T17:16:06.868Z,81.72
2022-12-15T17:21:26.893Z,75.40
2022-12-15T17:23:57.706Z,68.28
2022-12-15T17:26:30.340Z,74.97
2022-12-15T17:29:01.135Z,84.25
2022-12-15T17:31:34.705Z,69.47
2022-12-15T17:34:28.821Z,70.13
2022-12-15T17:37:00.702Z,61.22
2022-12-15T17:39:28.014Z,56.25
2022-12-15T17:42:02.550Z,60.47
2022-12-15T17:44:34.297Z,58.17
2022-12-15T17:47:02.357Z,58.40
2022-12-15T17:49:35.068Z,74.43
2022-12-15T17:52:06.608Z,130.25
2022-12-15T17:54:33.772Z,75.25
2022-12-15T17:57:00.299Z,82.45
2022-12-15T17:59:26.800Z,92.50
2022-12-15T18:01:56.873Z,89.28
2022-12-15T18:04:23.608Z,91.45
2022-12-15T18:06:51.991Z,116.47
2022-12-15T18:09:22.052Z,134.00
2022-12-15T18:11:48.430Z,108.07
2022-12-15T18:14:17.881Z,107.00
2022-12-15T18:16:44.934Z,115.80
2022-12-15T18:19:12.049Z,110.30
2022-12-15T18:21:38.686Z,119.88
2022-12-15T18:24:16.980Z,115.13
2022-12-15T18:26:46.602Z,147.00
2022-12-15T18:29:14.833Z,163.05
2022-12-15T18:31:41.947Z,186.43
2022-12-15T18:34:13.410Z,237.45
2022-12-15T18:36:50.384Z,141.67
2022-12-15T18:39:18.620Z,100.97
2022-12-15T18:41:45.530Z,74.38
2022-12-15T18:44:26.017Z,70.43
2022-12-15T18:46:54.994Z,69.80
2022-12-15T18:49:22.823Z,100.07
2022-12-15T18:51:49.396Z,82.25
2022-12-15T18:54:24.026Z,87.95
2022-12-15T18:56:51.050Z,78.68
2022-12-15T18:59:18.700Z,82.57
2022-12-15T19:01:46.543Z,83.68
2022-12-15T19:04:14.190Z,81.22
2022-12-15T19:09:15.872Z,86.32
2022-12-15T19:12:06.256Z,87.43
2022-12-15T19:14:41.759Z,89.90
2022-12-15T19:17:32.423Z,95.65
2022-12-15T19:20:17.429Z,75.43
2022-12-15T19:22:45.063Z,71.05
2022-12-15T19:27:39.437Z,76.50
2022-12-15T19:30:14.174Z,87.50
2022-12-15T19:32:40.574Z,83.55
2022-12-15T19:35:07.230Z,74.95
2022-12-15T19:37:38.192Z,82.80
2022-12-15T19:40:07.404Z,82.10
2022-12-15T19:42:35.885Z,86.07
2022-12-15T19:45:17.046Z,86.72
2022-12-15T19:47:43.746Z,79.22
2022-12-15T19:50:18.670Z,85.45
2022-12-15T19:52:49.020Z,83.50
2022-12-15T19:55:17.352Z,83.90
2022-12-15T19:57:44.540Z,83.05
2022-12-15T20:00:18.543Z,73.60
2022-12-15T20:02:44.985Z,73.60
2022-12-15T20:05:11.443Z,75.88
2022-12-15T20:07:38.098Z,66.53
2022-12-15T20:10:14.641Z,73.60
2022-12-15T20:12:47.426Z,68.85
2022-12-15T20:15:18.301Z,68.35
2022-12-15T20:17:46.690Z,65.15
2022-12-15T20:20:16.287Z,70.43
2022-12-15T20:22:45.443Z,72.85
2022-12-15T20:25:28.031Z,73.35
2022-12-15T20:27:55.657Z,73.65
2022-12-15T20:32:50.699Z,57.42
2022-12-15T20:35:19.011Z,60.55
2022-12-15T20:37:45.809Z,72.68
2022-12-15T20:40:21.735Z,71.43
2022-12-15T20:42:49.396Z,68.55
2022-12-15T20:47:45.721Z,62.78
2022-12-15T20:50:33.572Z,60.75
2022-12-15T20:53:00.228Z,62.22
2022-12-15T20:55:27.175Z,68.20
2022-12-15T20:57:53.962Z,59.03
2022-12-15T21:00:21.914Z,64.25
2022-12-15T21:02:49.930Z,63.35
2022-12-15T21:05:23.768Z,68.28
2022-12-15T21:07:51.646Z,63.67
2022-12-15T21:10:19.996Z,63.42
2022-12-15T21:12:48.789Z,54.92
2022-12-15T21:15:21.952Z,63.15
2022-12-15T21:18:19.646Z,58.63
2022-12-15T21:20:41.462Z,89.60
2022-12-15T21:23:28.904Z,67.03
2022-12-15T21:25:57.012Z,70.07
2022-12-15T21:28:24.802Z,60.63
2022-12-15T21:30:52.068Z,66.65
2022-12-15T21:33:18.695Z,58.58
2022-12-15T21:35:46.707Z,60.13
2022-12-15T21:38:23.885Z,61.80
2022-12-15T21:40:54.578Z,57.40
2022-12-15T21:43:28.263Z,63.47
2022-12-15T21:45:54.785Z,58.83
2022-12-15T21:48:40.042Z,57.53
2022-12-15T21:51:12.334Z,61.55
2022-12-15T21:53:38.908Z,78.55
2022-12-15T21:56:05.531Z,71.75
2022-12-15T21:58:32.334Z,70.70
2022-12-15T22:01:00.321Z,64.25
2022-12-15T22:03:26.840Z,66.90
2022-12-15T22:05:53.485Z,74.15
2022-12-15T22:08:22.333Z,82.40
2022-12-15T22:13:22.855Z,70.60
2022-12-15T22:15:50.914Z,92.10
2022-12-15T22:18:22.580Z,71.25
2022-12-15T22:20:50.410Z,70.70
2022-12-15T22:23:18.507Z,80.75
2022-12-15T22:25:45.964Z,78.32
2022-12-15T22:28:24.061Z,78.07
2022-12-15T22:30:52.102Z,67.65
2022-12-15T22:33:24.096Z,62.75
2022-12-15T22:35:51.991Z,64.97
2022-12-15T22:38:20.044Z,67.60
2022-12-15T22:40:49.183Z,64.63
2022-12-15T22:43:41.256Z,65.90
2022-12-15T22:46:10.400Z,65.68
2022-12-15T22:48:40.623Z,61.70
2022-12-15T22:51:07.848Z,63.85
2022-12-15T22:53:35.538Z,69.43
2022-12-15T22:56:06.103Z,69.63
2022-12-15T22:58:41.373Z,67.20
2022-12-15T23:01:08.921Z,66.43
2022-12-15T23:03:35.811Z,74.05
2022-12-15T23:06:03.561Z,64.68
2022-12-15T23:11:17.569Z,64.15
2022-12-15T23:13:44.803Z,71.60
2022-12-15T23:16:21.539Z,61.05
2022-12-15T23:18:50.190Z,59.78
2022-12-15T23:21:18.711Z,60.00
2022-12-15T23:23:45.520Z,57.75
2022-12-15T23:26:13.356Z,67.18
2022-12-15T23:28:40.192Z,55.45
2022-12-15T23:31:07.208Z,55.90
2022-12-15T23:33:34.295Z,57.25
2022-12-15T23:36:01.893Z,64.07
2022-12-15T23:38:29.013Z,59.97
2022-12-15T23:40:57.130Z,61.47
2022-12-15T23:43:25.181Z,61.00
2022-12-15T23:45:59.441Z,53.45
2022-12-15T23:48:30.041Z,54.28
2022-12-15T23:51:02.735Z,59.10
2022-12-15T23:53:29.388Z,51.63
2022-12-15T23:55:56.051Z,53.92
2022-12-15T23:58:22.424Z,42.10
